createdAt,value
2022-11-16T00:02:18.744Z,5.50
2022-11-16T00:04:45.648Z,5.60
2022-11-16T00:07:12.645Z,5.60
2022-11-16T00:09:39.539Z,5.60
2022-11-16T00:12:08.769Z,5.50
2022-11-16T00:14:36.197Z,5.50
2022-11-16T00:17:03.938Z,5.40
2022-11-16T00:19:31.280Z,5.50
2022-11-16T00:21:58.313Z,5.50
2022-11-16T00:24:25.202Z,5.40
2022-11-16T00:26:54.653Z,5.60
2022-11-16T00:29:24.239Z,5.40
2022-11-16T00:31:51.818Z,5.30
2022-11-16T00:34:19.118Z,5.30
2022-11-16T00:36:46.891Z,5.30
2022-11-16T00:39:15.746Z,5.30
2022-11-16T00:41:43.637Z,5.40
2022-11-16T00:44:11.683Z,5.20
2022-11-16T00:46:38.868Z,5.30
2022-11-16T00:49:06.546Z,5.30
2022-11-16T00:51:34.702Z,5.30
2022-11-16T00:54:01.958Z,5.30
2022-11-16T00:56:29.847Z,5.30
2022-11-16T00:58:56.650Z,5.30
2022-11-16T01:01:23.676Z,5.40
2022-11-16T01:03:51.537Z,5.30
2022-11-16T01:06:20.358Z,5.30
2022-11-16T01:08:47.249Z,5.30
2022-11-16T01:11:36.565Z,5.30
2022-11-16T01:14:05.959Z,5.20
2022-11-16T01:16:33.032Z,5.20
2022-11-16T01:19:00.188Z,5.30
2022-11-16T01:21:27.522Z,5.30
2022-11-16T01:23:55.803Z,5.40
2022-11-16T01:26:23.206Z,5.30
2022-11-16T01:28:50.094Z,5.30
2022-11-16T01:31:17.124Z,5.30
2022-11-16T01:33:43.925Z,5.30
2022-11-16T01:36:19.527Z,5.30
2022-11-16T01:38:47.055Z,5.30
2022-11-16T01:41:22.828Z,5.30
2022-11-16T01:44:25.754Z,5.20
2022-11-16T01:46:55.571Z,5.20
2022-11-16T01:49:25.088Z,5.20
2022-11-16T01:52:17.350Z,5.30
2022-11-16T01:54:46.707Z,5.20
2022-11-16T01:57:18.986Z,5.20
2022-11-16T01:59:57.646Z,5.30
2022-11-16T02:02:26.914Z,5.20
2022-11-16T02:04:56.835Z,5.10
2022-11-16T02:08:00.615Z,5.10
2022-11-16T02:10:59.872Z,5.10
2022-11-16T02:13:56.745Z,5.20
2022-11-16T02:16:30.998Z,5.10
2022-11-16T02:19:36.994Z,5.10
2022-11-16T02:22:38.131Z,5.10
2022-11-16T02:25:26.405Z,5.10
2022-11-16T02:28:16.539Z,5.10
2022-11-16T02:30:48.965Z,5.00
2022-11-16T02:33:21.345Z,5.00
2022-11-16T02:35:52.580Z,4.90
2022-11-16T02:38:28.566Z,5.00
2022-11-16T02:41:10.170Z,5.00
2022-11-16T02:43:47.659Z,5.00
2022-11-16T02:46:23.425Z,5.00
2022-11-16T02:48:54.301Z,5.00
2022-11-16T02:51:22.730Z,5.00
2022-11-16T02:54:20.012Z,5.00
2022-11-16T02:57:03.169Z,4.90
2022-11-16T02:59:37.589Z,4.90
2022-11-16T03:02:35.941Z,5.00
2022-11-16T03:05:18.552Z,4.90
2022-11-16T03:08:06.726Z,4.90
2022-11-16T03:10:56.962Z,4.90
2022-11-16T03:13:28.158Z,4.90
2022-11-16T03:15:56.881Z,4.90
2022-11-16T03:18:28.980Z,5.00
2022-11-16T03:21:16.187Z,5.00
2022-11-16T03:23:45.314Z,5.10
2022-11-16T03:26:16.575Z,5.00
2022-11-16T03:29:08.545Z,4.90
2022-11-16T03:31:43.111Z,4.90
2022-11-16T03:34:18.917Z,5.00
2022-11-16T03:36:48.637Z,4.90
2022-11-16T03:39:27.004Z,5.00
2022-11-16T03:41:57.050Z,5.00
2022-11-16T03:44:24.018Z,5.00
2022-11-16T03:46:50.964Z,5.00
2022-11-16T03:49:22.302Z,5.00
2022-11-16T03:51:51.270Z,5.00
2022-11-16T03:54:18.815Z,5.00
2022-11-16T03:56:45.758Z,5.00
2022-11-16T03:59:12.787Z,5.10
2022-11-16T04:01:44.580Z,5.10
2022-11-16T04:04:33.165Z,5.10
2022-11-16T04:07:18.980Z,5.10
2022-11-16T04:10:04.422Z,5.10
2022-11-16T04:12:50.450Z,5.20
2022-11-16T04:15:35.811Z,5.20
2022-11-16T04:18:21.271Z,5.20
2022-11-16T04:21:06.682Z,5.20
2022-11-16T04:23:51.919Z,5.20
2022-11-16T04:26:18.923Z,5.20
2022-11-16T04:28:46.815Z,5.20
2022-11-16T04:31:32.843Z,5.20
2022-11-16T04:34:38.933Z,5.30
2022-11-16T04:37:24.770Z,5.30
2022-11-16T04:39:52.110Z,5.40
2022-11-16T04:42:22.306Z,5.40
2022-11-16T04:45:09.976Z,5.30
2022-11-16T04:47:45.411Z,5.30
2022-11-16T04:50:12.226Z,5.40
2022-11-16T04:52:40.448Z,5.30
2022-11-16T04:55:10.738Z,5.40
2022-11-16T04:57:38.563Z,5.40
2022-11-16T05:00:07.120Z,5.40
2022-11-16T05:02:35.852Z,5.40
2022-11-16T05:05:02.898Z,5.40
2022-11-16T05:07:30.310Z,5.50
2022-11-16T05:10:05.766Z,5.50
2022-11-16T05:12:33.701Z,5.50
2022-11-16T05:15:04.168Z,5.50
2022-11-16T05:17:33.070Z,5.60
2022-11-16T05:20:19.547Z,5.60
2022-11-16T05:22:57.606Z,5.60
2022-11-16T05:25:33.854Z,5.60
2022-11-16T05:28:04.960Z,5.60
2022-11-16T05:30:34.387Z,5.60
2022-11-16T05:33:03.265Z,5.60
2022-11-16T05:35:33.496Z,5.60
2022-11-16T05:38:01.106Z,5.60
2022-11-16T05:40:28.775Z,5.70
2022-11-16T05:42:58.503Z,5.60
2022-11-16T05:45:27.814Z,5.60
2022-11-16T05:47:56.003Z,5.70
2022-11-16T05:50:22.806Z,5.70
2022-11-16T05:53:02.442Z,5.70
2022-11-16T05:55:29.323Z,5.70
2022-11-16T05:57:56.246Z,5.70
2022-11-16T06:00:23.166Z,5.80
2022-11-16T06:02:52.633Z,5.70
2022-11-16T06:05:24.097Z,5.80
2022-11-16T06:07:51.447Z,5.70
2022-11-16T06:10:18.317Z,5.80
2022-11-16T06:12:48.476Z,5.80
2022-11-16T06:15:15.678Z,5.80
2022-11-16T06:17:42.597Z,5.80
2022-11-16T06:20:11.215Z,5.90
2022-11-16T06:22:38.608Z,5.90
2022-11-16T06:25:09.096Z,5.90
2022-11-16T06:27:42.418Z,5.90
2022-11-16T06:30:11.139Z,5.90
2022-11-16T06:32:39.990Z,5.90
2022-11-16T06:35:07.954Z,6.00
2022-11-16T06:37:35.151Z,5.90
2022-11-16T06:40:03.007Z,5.90
2022-11-16T06:42:33.616Z,6.00
2022-11-16T06:45:01.407Z,6.00
2022-11-16T06:47:34.552Z,6.00
2022-11-16T06:50:01.499Z,6.00
2022-11-16T06:52:28.417Z,6.00
2022-11-16T06:54:55.453Z,6.00
2022-11-16T06:57:23.244Z,6.00
2022-11-16T06:59:50.469Z,6.00
2022-11-16T07:02:17.858Z,5.90
2022-11-16T07:04:45.175Z,6.00
2022-11-16T07:07:12.003Z,6.00
2022-11-16T07:09:39.638Z,6.00
2022-11-16T07:12:06.682Z,6.10
2022-11-16T07:14:37.352Z,6.10
2022-11-16T07:17:09.522Z,6.10
2022-11-16T07:19:37.588Z,6.10
2022-11-16T07:22:05.942Z,6.10
2022-11-16T07:24:33.462Z,6.10
2022-11-16T07:27:00.728Z,6.10
2022-11-16T07:29:32.600Z,6.10
2022-11-16T07:32:20.836Z,6.10
2022-11-16T07:35:12.661Z,6.20
2022-11-16T07:37:40.047Z,6.20
2022-11-16T07:40:09.031Z,6.10
2022-11-16T07:42:37.224Z,6.20
2022-11-16T07:45:18.785Z,6.20
2022-11-16T07:47:53.468Z,6.10
2022-11-16T07:50:42.814Z,6.20
2022-11-16T07:53:10.055Z,6.20
2022-11-16T07:55:39.106Z,6.20
2022-11-16T07:58:06.216Z,6.20
2022-11-16T08:00:33.011Z,6.20
2022-11-16T08:03:08.546Z,6.20
2022-11-16T08:05:36.451Z,6.30
2022-11-16T08:08:03.284Z,6.30
2022-11-16T08:10:32.305Z,6.30
2022-11-16T08:12:59.502Z,6.30
2022-11-16T08:15:26.687Z,6.30
2022-11-16T08:17:53.729Z,6.30
2022-11-16T08:20:20.528Z,6.30
2022-11-16T08:22:49.758Z,6.40
2022-11-16T08:25:17.021Z,6.30
2022-11-16T08:27:44.050Z,6.40
2022-11-16T08:30:12.199Z,6.40
2022-11-16T08:32:41.206Z,6.40
2022-11-16T08:35:08.795Z,6.40
2022-11-16T08:37:35.630Z,6.40
2022-11-16T08:40:03.586Z,6.40
2022-11-16T08:42:33.003Z,6.40
2022-11-16T08:44:59.935Z,6.40
2022-11-16T08:47:26.792Z,6.40
2022-11-16T08:49:56.073Z,6.40
2022-11-16T08:52:25.128Z,6.40
2022-11-16T08:54:53.489Z,6.40
2022-11-16T08:57:20.904Z,6.40
2022-11-16T08:59:52.379Z,6.40
2022-11-16T09:02:25.265Z,6.40
2022-11-16T09:04:53.086Z,6.30
2022-11-16T09:07:21.006Z,6.30
2022-11-16T09:09:48.618Z,6.30
2022-11-16T09:12:15.546Z,6.30
2022-11-16T09:14:42.383Z,6.30
2022-11-16T09:17:09.226Z,6.30
2022-11-16T09:19:35.993Z,6.30
2022-11-16T09:22:02.746Z,6.30
2022-11-16T09:24:29.494Z,6.40
2022-11-16T09:27:00.864Z,6.40
2022-11-16T09:29:28.277Z,6.40
2022-11-16T09:31:55.917Z,6.50
2022-11-16T09:34:22.784Z,6.40
2022-11-16T09:36:49.567Z,6.40
2022-11-16T09:39:30.631Z,6.50
2022-11-16T09:42:06.600Z,6.50
2022-11-16T09:44:52.042Z,6.40
2022-11-16T09:47:21.897Z,6.50
2022-11-16T09:49:58.159Z,6.50
2022-11-16T09:52:40.735Z,6.50
2022-11-16T09:55:31.421Z,6.50
2022-11-16T09:58:02.023Z,6.50
2022-11-16T10:00:31.108Z,6.50
2022-11-16T10:03:05.681Z,6.50
2022-11-16T10:06:05.774Z,6.50
2022-11-16T10:08:35.789Z,6.50
2022-11-16T10:11:24.053Z,6.50
2022-11-16T10:14:05.205Z,6.60
2022-11-16T10:16:56.965Z,6.60
2022-11-16T10:19:57.001Z,6.60
2022-11-16T10:22:36.197Z,6.60
2022-11-16T10:25:21.740Z,6.60
2022-11-16T10:28:00.464Z,6.60
2022-11-16T10:30:27.730Z,6.60
2022-11-16T10:32:54.567Z,6.60
2022-11-16T10:35:24.401Z,6.50
2022-11-16T10:37:52.205Z,6.50
2022-11-16T10:40:44.306Z,6.50
2022-11-16T10:43:23.917Z,6.50
2022-11-16T10:46:15.493Z,6.50
2022-11-16T10:48:58.535Z,6.40
2022-11-16T10:51:25.366Z,6.40
2022-11-16T10:53:53.204Z,6.40
2022-11-16T10:56:37.241Z,6.40
2022-11-16T10:59:09.215Z,6.40
2022-11-16T11:01:37.874Z,6.40
2022-11-16T11:04:23.559Z,6.30
2022-11-16T11:07:01.627Z,6.30
2022-11-16T11:09:36.106Z,6.20
2022-11-16T11:12:36.137Z,6.30
2022-11-16T11:15:02.923Z,6.20
2022-11-16T11:17:31.884Z,6.20
2022-11-16T11:20:14.903Z,6.20
2022-11-16T11:23:03.868Z,6.20
2022-11-16T11:25:37.170Z,6.20
2022-11-16T11:28:26.224Z,6.20
2022-11-16T11:30:57.814Z,6.20
2022-11-16T11:33:28.780Z,6.20
2022-11-16T11:36:06.507Z,6.20
2022-11-16T11:38:35.519Z,6.30
2022-11-16T11:41:05.236Z,6.30
2022-11-16T11:43:34.589Z,6.30
2022-11-16T11:46:11.928Z,6.30
2022-11-16T11:48:51.504Z,6.30
2022-11-16T11:51:27.468Z,6.30
2022-11-16T11:53:56.802Z,6.30
2022-11-16T11:56:24.840Z,6.30
2022-11-16T11:58:52.443Z,6.30
2022-11-16T12:01:37.786Z,6.30
2022-11-16T12:04:22.084Z,6.30
2022-11-16T12:07:14.918Z,6.30
2022-11-16T12:10:10.396Z,6.30
2022-11-16T12:12:42.978Z,6.30
2022-11-16T12:15:31.158Z,6.30
2022-11-16T12:18:03.800Z,6.30
2022-11-16T12:20:45.564Z,6.30
2022-11-16T12:23:26.806Z,6.30
2022-11-16T12:26:18.438Z,6.30
2022-11-16T12:29:13.044Z,6.40
2022-11-16T12:31:42.821Z,6.30
2022-11-16T12:34:35.356Z,6.30
2022-11-16T12:37:11.439Z,6.30
2022-11-16T12:39:53.416Z,6.30
2022-11-16T12:42:38.758Z,6.40
2022-11-16T12:45:40.179Z,6.30
2022-11-16T12:48:21.995Z,6.40
2022-11-16T12:51:03.115Z,6.40
2022-11-16T12:54:09.494Z,6.30
2022-11-16T12:56:59.715Z,6.40
2022-11-16T12:59:49.143Z,6.30
2022-11-16T13:02:46.537Z,6.40
2022-11-16T13:05:31.589Z,6.40
2022-11-16T13:08:05.003Z,6.30
2022-11-16T13:10:42.772Z,6.40
2022-11-16T13:13:40.875Z,6.40
2022-11-16T13:16:09.966Z,6.30
2022-11-16T13:18:41.378Z,6.40
2022-11-16T13:21:19.976Z,6.40
2022-11-16T13:23:55.596Z,6.40
2022-11-16T13:26:44.750Z,6.40
2022-11-16T13:29:34.089Z,6.40
2022-11-16T13:32:24.527Z,6.40
2022-11-16T13:34:52.411Z,6.40
2022-11-16T13:37:34.262Z,6.40
2022-11-16T13:40:01.217Z,6.40
2022-11-16T13:42:30.120Z,6.40
2022-11-16T13:45:21.342Z,6.50
2022-11-16T13:47:56.700Z,6.50
2022-11-16T13:50:35.963Z,6.50
2022-11-16T13:56:06.948Z,6.50
2022-11-16T13:58:37.170Z,6.50
2022-11-16T14:01:08.928Z,6.50
2022-11-16T14:03:40.809Z,6.50
2022-11-16T14:06:27.955Z,6.50
2022-11-16T14:08:55.685Z,6.50
2022-11-16T14:11:38.737Z,6.60
2022-11-16T14:14:43.401Z,6.60
2022-11-16T14:17:10.230Z,6.60
2022-11-16T14:19:49.229Z,6.60
2022-11-16T14:22:22.293Z,6.60
2022-11-16T14:24:58.383Z,6.60
2022-11-16T14:27:45.855Z,6.60
2022-11-16T14:30:23.211Z,6.60
2022-11-16T14:32:52.659Z,6.60
2022-11-16T14:35:38.891Z,6.60
2022-11-16T14:38:31.532Z,6.60
2022-11-16T14:41:02.036Z,6.60
2022-11-16T14:43:38.611Z,6.60
2022-11-16T14:46:09.312Z,6.70
2022-11-16T14:48:45.038Z,6.70
2022-11-16T14:51:22.659Z,6.60
2022-11-16T14:54:00.569Z,6.70
2022-11-16T14:56:27.896Z,6.60
2022-11-16T14:58:59.498Z,6.60
2022-11-16T15:01:36.695Z,6.60
2022-11-16T15:04:06.992Z,6.60
2022-11-16T15:07:04.061Z,6.60
2022-11-16T15:09:37.006Z,6.60
2022-11-16T15:12:26.886Z,6.60
2022-11-16T15:14:57.058Z,6.60
2022-11-16T15:17:31.884Z,6.50
2022-11-16T15:20:14.934Z,6.50
2022-11-16T15:22:44.723Z,6.50
2022-11-16T15:25:33.305Z,6.50
2022-11-16T15:28:03.022Z,6.50
2022-11-16T15:30:34.106Z,6.50
2022-11-16T15:33:10.479Z,6.40
2022-11-16T15:35:38.533Z,6.40
2022-11-16T15:38:05.445Z,6.30
2022-11-16T15:40:33.951Z,6.30
2022-11-16T15:43:03.834Z,6.20
2022-11-16T15:45:32.597Z,6.20
2022-11-16T15:48:02.023Z,6.20
2022-11-16T15:50:29.176Z,6.20
2022-11-16T15:52:57.019Z,6.10
2022-11-16T15:55:31.925Z,6.10
2022-11-16T15:58:25.506Z,6.20
2022-11-16T16:00:54.393Z,6.10
2022-11-16T16:03:26.637Z,6.10
2022-11-16T16:05:54.782Z,6.00
2022-11-16T16:08:30.418Z,6.00
2022-11-16T16:11:27.655Z,6.00
2022-11-16T16:14:02.728Z,6.00
2022-11-16T16:16:29.668Z,6.00
2022-11-16T16:19:03.667Z,5.90
2022-11-16T16:21:44.884Z,5.90
2022-11-16T16:24:38.235Z,5.90
2022-11-16T16:27:12.180Z,5.90
2022-11-16T16:29:39.633Z,5.90
2022-11-16T16:32:09.228Z,5.90
2022-11-16T16:34:39.344Z,5.90
2022-11-16T16:37:11.794Z,5.90
2022-11-16T16:39:39.839Z,5.90
2022-11-16T16:42:13.119Z,6.00
2022-11-16T16:44:41.007Z,6.00
2022-11-16T16:47:08.435Z,6.00
2022-11-16T16:49:35.474Z,6.00
2022-11-16T16:52:02.590Z,6.00
2022-11-16T16:54:29.408Z,6.00
2022-11-16T16:56:57.353Z,6.10
2022-11-16T16:59:24.893Z,6.00
2022-11-16T17:01:51.836Z,6.00
2022-11-16T17:04:19.423Z,6.00
2022-11-16T17:06:47.970Z,5.90
2022-11-16T17:09:14.757Z,6.00
2022-11-16T17:11:41.549Z,6.00
2022-11-16T17:14:08.458Z,5.90
2022-11-16T17:16:35.897Z,5.90
2022-11-16T17:19:04.024Z,5.90
2022-11-16T17:21:31.800Z,5.90
2022-11-16T17:23:58.612Z,5.90
2022-11-16T17:26:29.212Z,5.90
2022-11-16T17:28:57.144Z,6.00
2022-11-16T17:31:25.356Z,6.00
2022-11-16T17:33:52.380Z,6.00
2022-11-16T17:36:19.222Z,6.00
2022-11-16T17:38:46.255Z,6.00
2022-11-16T17:41:18.586Z,6.00
2022-11-16T17:43:46.736Z,6.00
2022-11-16T17:46:16.077Z,6.00
2022-11-16T17:48:44.629Z,6.00
2022-11-16T17:51:12.858Z,6.00
2022-11-16T17:53:40.709Z,6.00
2022-11-16T17:56:08.238Z,6.00
2022-11-16T17:58:35.241Z,6.00
2022-11-16T18:01:02.044Z,6.00
2022-11-16T18:03:28.955Z,6.00
2022-11-16T18:06:05.866Z,6.00
2022-11-16T18:08:34.351Z,5.90
2022-11-16T18:11:09.658Z,5.90
2022-11-16T18:13:37.360Z,5.90
2022-11-16T18:16:11.449Z,5.80
2022-11-16T18:18:38.908Z,5.80
2022-11-16T18:21:07.259Z,5.80
2022-11-16T18:23:35.841Z,5.80
2022-11-16T18:26:08.474Z,5.80
2022-11-16T18:28:36.122Z,5.80
2022-11-16T18:31:06.789Z,5.80
2022-11-16T18:33:35.706Z,5.80
2022-11-16T18:36:03.652Z,5.70
2022-11-16T18:38:30.607Z,5.80
2022-11-16T18:41:04.319Z,5.80
2022-11-16T18:43:31.678Z,5.80
2022-11-16T18:45:58.655Z,5.80
2022-11-16T18:48:25.432Z,5.90
2022-11-16T18:50:52.225Z,5.90
2022-11-16T18:53:18.999Z,5.90
2022-11-16T18:55:57.495Z,5.90
2022-11-16T18:58:49.366Z,5.90
2022-11-16T19:01:15.026Z,5.90
2022-11-16T19:03:42.173Z,5.90
2022-11-16T19:06:10.358Z,6.00
2022-11-16T19:08:38.820Z,6.00
2022-11-16T19:11:15.982Z,6.00
2022-11-16T19:13:44.035Z,6.10
2022-11-16T19:16:12.597Z,6.10
2022-11-16T19:18:39.786Z,6.00
2022-11-16T19:21:10.031Z,6.10
2022-11-16T19:23:38.809Z,6.10
2022-11-16T19:26:06.406Z,6.10
2022-11-16T19:28:37.854Z,6.00
2022-11-16T19:31:09.464Z,6.00
2022-11-16T19:33:36.919Z,6.00
2022-11-16T19:36:12.457Z,6.00
2022-11-16T19:38:39.593Z,6.00
2022-11-16T19:41:08.230Z,6.10
2022-11-16T19:43:35.414Z,6.10
2022-11-16T19:46:07.336Z,6.00
2022-11-16T19:48:34.865Z,6.10
2022-11-16T19:51:09.851Z,6.10
2022-11-16T19:53:37.998Z,6.10
2022-11-16T19:56:05.843Z,6.10
2022-11-16T19:58:36.869Z,6.10
2022-11-16T20:01:06.274Z,6.10
2022-11-16T20:03:34.373Z,6.10
2022-11-16T20:06:05.886Z,6.10
2022-11-16T20:08:32.763Z,6.10
2022-11-16T20:10:59.514Z,6.10
2022-11-16T20:13:26.280Z,6.10
2022-11-16T20:15:53.097Z,6.10
2022-11-16T20:18:20.121Z,6.00
2022-11-16T20:20:46.901Z,6.10
2022-11-16T20:23:15.629Z,6.10
2022-11-16T20:25:42.468Z,6.10
2022-11-16T20:28:09.582Z,6.10
2022-11-16T20:30:36.353Z,6.10
2022-11-16T20:33:03.144Z,6.10
2022-11-16T20:35:29.957Z,6.10
2022-11-16T20:37:56.807Z,6.10
2022-11-16T20:40:24.594Z,6.10
2022-11-16T20:42:51.433Z,6.10
2022-11-16T20:45:18.215Z,6.10
2022-11-16T20:47:44.995Z,6.10
2022-11-16T20:50:11.979Z,6.10
2022-11-16T20:52:43.069Z,6.10
2022-11-16T20:55:11.595Z,6.00
2022-11-16T20:57:38.349Z,6.10
2022-11-16T21:00:05.733Z,6.00
2022-11-16T21:02:32.486Z,6.00
2022-11-16T21:05:00.602Z,6.00
2022-11-16T21:07:28.230Z,6.00
2022-11-16T21:10:13.466Z,6.00
2022-11-16T21:12:59.157Z,6.00
2022-11-16T21:15:25.936Z,6.00
2022-11-16T21:17:53.031Z,5.90
2022-11-16T21:20:27.407Z,5.90
2022-11-16T21:22:54.530Z,5.90
2022-11-16T21:25:21.468Z,5.90
2022-11-16T21:27:48.315Z,5.80
2022-11-16T21:30:15.302Z,5.80
2022-11-16T21:32:42.147Z,5.80
2022-11-16T21:35:09.134Z,5.80
2022-11-16T21:37:35.890Z,5.80
2022-11-16T21:40:02.737Z,5.70
2022-11-16T21:42:29.737Z,5.80
2022-11-16T21:44:56.518Z,5.80
2022-11-16T21:47:23.394Z,5.70
2022-11-16T21:50:16.809Z,5.80
2022-11-16T21:52:37.238Z,5.70
2022-11-16T21:55:04.363Z,5.70
2022-11-16T21:57:31.128Z,5.70
2022-11-16T21:59:57.940Z,5.70
2022-11-16T22:02:24.768Z,5.70
2022-11-16T22:05:10.257Z,5.70
2022-11-16T22:07:37.164Z,5.70
2022-11-16T22:10:05.885Z,5.70
2022-11-16T22:12:32.922Z,5.70
2022-11-16T22:14:59.783Z,5.60
2022-11-16T22:17:27.139Z,5.60
2022-11-16T22:19:53.927Z,5.60
2022-11-16T22:22:21.552Z,5.50
2022-11-16T22:24:48.529Z,5.50
2022-11-16T22:27:16.205Z,5.50
2022-11-16T22:29:43.065Z,5.40
2022-11-16T22:32:10.506Z,5.40
2022-11-16T22:34:37.609Z,5.30
2022-11-16T22:37:04.396Z,5.40
2022-11-16T22:39:31.453Z,5.30
2022-11-16T22:41:58.275Z,5.40
2022-11-16T22:44:25.067Z,5.40
2022-11-16T22:46:52.685Z,5.30
2022-11-16T22:49:19.669Z,5.30
2022-11-16T22:51:46.735Z,5.30
2022-11-16T22:54:15.597Z,5.30
2022-11-16T22:56:42.909Z,5.20
2022-11-16T22:59:10.004Z,5.20
2022-11-16T23:01:37.463Z,5.20
2022-11-16T23:04:04.938Z,5.20
2022-11-16T23:06:32.161Z,5.20
2022-11-16T23:08:59.212Z,5.20
2022-11-16T23:11:44.983Z,5.20
2022-11-16T23:14:32.993Z,5.10
2022-11-16T23:17:00.762Z,5.10
2022-11-16T23:19:46.972Z,5.10
2022-11-16T23:22:35.379Z,5.10
2022-11-16T23:25:21.761Z,5.10
2022-11-16T23:28:15.336Z,5.10
2022-11-16T23:30:43.526Z,5.20
2022-11-16T23:33:10.657Z,5.10
2022-11-16T23:35:37.735Z,5.10
2022-11-16T23:38:08.192Z,5.00
2022-11-16T23:40:37.076Z,4.90
2022-11-16T23:43:23.741Z,4.90
2022-11-16T23:45:50.990Z,4.80
2022-11-16T23:48:18.802Z,4.90
2022-11-16T23:50:46.163Z,4.90
2022-11-16T23:53:13.876Z,4.80
2022-11-16T23:55:40.971Z,4.80
2022-11-16T23:58:13.244Z,4.60
